createdAt,value
2022-11-13T00:04:41.152Z,101575.16
2022-11-13T00:09:42.521Z,101566.66
2022-11-13T00:14:44.013Z,101554.75
2022-11-13T00:19:45.382Z,101551.09
2022-11-13T00:24:46.839Z,101547.72
2022-11-13T00:29:48.218Z,101539.47
2022-11-13T00:34:49.593Z,101542.75
2022-11-13T00:39:54.436Z,101538.03
2022-11-13T00:44:58.395Z,101535.72
2022-11-13T00:49:59.759Z,101527.84
2022-11-13T00:55:01.128Z,101526.00
2022-11-13T01:00:02.914Z,101527.25
2022-11-13T01:05:04.589Z,101529.31
2022-11-13T01:10:07.365Z,101519.56
2022-11-13T01:15:09.321Z,101521.09
2022-11-13T01:20:11.122Z,101513.91
2022-11-13T01:25:12.534Z,101515.13
2022-11-13T01:30:13.949Z,101510.28
2022-11-13T01:35:15.462Z,101499.22
2022-11-13T01:40:16.926Z,101494.28
2022-11-13T01:46:09.795Z,101503.91
2022-11-13T01:51:20.852Z,101489.94
2022-11-13T01:56:22.670Z,101488.50
2022-11-13T02:01:24.102Z,101490.06
2022-11-13T02:06:30.404Z,101480.81
2022-11-13T02:11:31.902Z,101479.59
2022-11-13T02:16:36.652Z,101479.13
2022-11-13T02:21:47.710Z,101484.38
2022-11-13T02:26:51.874Z,101481.09
2022-11-13T02:31:53.211Z,101487.66
2022-11-13T02:36:54.613Z,101483.06
2022-11-13T02:41:55.977Z,101479.28
2022-11-13T02:46:57.345Z,101487.31
2022-11-13T02:51:58.820Z,101485.00
2022-11-13T02:57:00.199Z,101468.84
2022-11-13T03:02:01.619Z,101475.69
2022-11-13T03:07:03.323Z,101460.03
2022-11-13T03:12:05.073Z,101450.31
2022-11-13T03:17:06.430Z,101446.38
2022-11-13T03:22:07.925Z,101451.88
2022-11-13T03:27:09.342Z,101436.69
2022-11-13T03:32:10.738Z,101438.38
2022-11-13T03:37:12.081Z,101442.97
2022-11-13T03:42:13.434Z,101439.59
2022-11-13T03:47:15.542Z,101436.63
2022-11-13T03:52:16.942Z,101449.88
2022-11-13T03:57:18.581Z,101447.31
2022-11-13T04:02:19.920Z,101440.75
2022-11-13T04:07:21.361Z,101429.13
2022-11-13T04:12:22.769Z,101427.69
2022-11-13T04:17:24.159Z,101417.22
2022-11-13T04:22:25.581Z,101414.66
2022-11-13T04:27:27.021Z,101411.59
2022-11-13T04:32:28.519Z,101395.59
2022-11-13T04:37:29.889Z,101395.28
2022-11-13T04:42:49.423Z,101403.50
2022-11-13T04:47:51.430Z,101388.59
2022-11-13T04:52:52.873Z,101385.91
2022-11-13T04:57:55.533Z,101387.22
2022-11-13T05:02:59.394Z,101383.44
2022-11-13T05:08:00.803Z,101375.44
2022-11-13T05:13:02.215Z,101366.31
2022-11-13T05:18:03.685Z,101363.31
2022-11-13T05:23:05.165Z,101362.56
2022-11-13T05:28:06.603Z,101359.41
2022-11-13T05:33:08.291Z,101344.22
2022-11-13T05:38:09.694Z,101346.50
2022-11-13T05:43:11.039Z,101339.75
2022-11-13T05:48:12.459Z,101333.84
2022-11-13T05:53:13.895Z,101325.94
2022-11-13T05:58:15.256Z,101324.13
2022-11-13T06:03:16.649Z,101319.53
2022-11-13T06:08:18.079Z,101321.81
2022-11-13T06:13:19.790Z,101313.72
2022-11-13T06:18:26.707Z,101304.84
2022-11-13T06:23:28.389Z,101312.09
2022-11-13T06:28:30.117Z,101310.19
2022-11-13T06:33:32.258Z,101298.66
2022-11-13T06:38:35.872Z,101287.78
2022-11-13T06:43:37.736Z,101290.56
2022-11-13T06:48:39.258Z,101300.75
2022-11-13T06:53:40.805Z,101294.56
2022-11-13T06:58:43.655Z,101290.81
2022-11-13T07:03:45.523Z,101288.78
2022-11-13T07:08:47.672Z,101288.78
2022-11-13T07:13:49.786Z,101292.28
2022-11-13T07:18:54.311Z,101284.75
2022-11-13T07:23:56.036Z,101287.19
2022-11-13T07:28:57.523Z,101291.94
2022-11-13T07:33:59.078Z,101286.94
2022-11-13T07:39:00.614Z,101285.84
2022-11-13T07:44:05.442Z,101286.00
2022-11-13T07:49:09.359Z,101291.31
2022-11-13T07:54:10.733Z,101285.13
2022-11-13T07:59:12.081Z,101286.47
2022-11-13T08:04:13.425Z,101282.84
2022-11-13T08:09:14.814Z,101279.91
2022-11-13T08:14:16.170Z,101272.66
2022-11-13T08:19:17.552Z,101272.91
2022-11-13T08:24:18.938Z,101263.69
2022-11-13T08:29:20.280Z,101253.75
2022-11-13T08:34:21.626Z,101247.78
2022-11-13T08:39:23.021Z,101241.75
2022-11-13T08:44:24.440Z,101230.56
2022-11-13T08:49:25.905Z,101225.88
2022-11-13T08:54:27.303Z,101209.91
2022-11-13T08:59:28.702Z,101210.06
2022-11-13T09:04:30.062Z,101213.84
2022-11-13T09:09:31.433Z,101205.09
2022-11-13T09:14:32.828Z,101209.97
2022-11-13T09:19:34.271Z,101192.84
2022-11-13T09:24:35.647Z,101174.19
2022-11-13T09:29:37.043Z,101168.19
2022-11-13T09:34:38.956Z,101158.06
2022-11-13T09:39:40.403Z,101159.47
2022-11-13T09:44:47.714Z,101156.28
2022-11-13T09:49:58.606Z,101154.72
2022-11-13T09:55:00.161Z,101165.44
2022-11-13T10:00:12.657Z,101161.59
2022-11-13T10:05:27.529Z,101150.25
2022-11-13T10:10:52.221Z,101142.59
2022-11-13T10:16:22.745Z,101126.22
2022-11-13T10:21:54.905Z,101114.31
2022-11-13T10:27:00.199Z,101114.34
2022-11-13T10:32:23.132Z,101108.47
2022-11-13T10:37:33.971Z,101105.78
2022-11-13T10:42:41.778Z,101092.13
2022-11-13T10:48:03.745Z,101080.97
2022-11-13T10:53:16.247Z,101072.22
2022-11-13T10:58:19.632Z,101064.28
2022-11-13T11:03:24.414Z,101023.19
2022-11-13T11:08:35.149Z,101022.97
2022-11-13T11:13:36.557Z,101004.50
2022-11-13T11:18:47.454Z,100991.94
2022-11-13T11:24:04.358Z,100976.84
2022-11-13T11:29:17.309Z,100968.25
2022-11-13T11:34:25.578Z,100938.13
2022-11-13T11:39:31.434Z,100926.19
2022-11-13T11:44:48.058Z,100900.75
2022-11-13T11:49:49.531Z,100903.19
2022-11-13T11:55:32.988Z,100890.50
2022-11-13T12:00:41.204Z,100901.84
2022-11-13T12:05:57.335Z,100901.78
2022-11-13T12:11:04.655Z,100884.81
2022-11-13T12:16:43.488Z,100879.47
2022-11-13T12:21:57.035Z,100874.00
2022-11-13T12:27:21.984Z,100861.19
2022-11-13T12:32:35.190Z,100852.66
2022-11-13T12:37:42.425Z,100851.56
2022-11-13T12:42:55.056Z,100858.53
2022-11-13T12:47:56.587Z,100858.66
2022-11-13T12:53:03.058Z,100863.78
2022-11-13T12:58:32.896Z,100857.72
2022-11-13T13:04:05.123Z,100862.38
2022-11-13T13:09:18.587Z,100859.94
2022-11-13T13:14:40.690Z,100840.91
2022-11-13T13:19:42.232Z,100836.00
2022-11-13T13:24:43.631Z,100818.94
2022-11-13T13:29:45.067Z,100808.19
2022-11-13T13:35:08.245Z,100807.66
2022-11-13T13:40:09.764Z,100806.59
2022-11-13T13:45:51.724Z,100789.72
2022-11-13T13:50:53.838Z,100778.09
2022-11-13T13:55:56.402Z,100777.97
2022-11-13T14:01:17.620Z,100777.59
2022-11-13T14:06:24.721Z,100759.03
2022-11-13T14:11:29.310Z,100767.97
2022-11-13T14:16:30.683Z,100750.56
2022-11-13T14:21:32.768Z,100737.22
2022-11-13T14:26:34.425Z,100719.69
2022-11-13T14:31:36.871Z,100717.19
2022-11-13T14:36:40.735Z,100711.41
2022-11-13T14:41:49.413Z,100689.34
2022-11-13T14:47:00.307Z,100675.66
2022-11-13T14:52:02.411Z,100675.00
2022-11-13T14:57:09.302Z,100665.47
2022-11-13T15:02:12.461Z,100661.66
2022-11-13T15:07:34.152Z,100666.16
2022-11-13T15:12:35.482Z,100665.09
2022-11-13T15:17:36.946Z,100675.34
2022-11-13T15:28:07.682Z,100677.13
2022-11-13T15:33:14.605Z,100667.84
2022-11-13T15:38:16.024Z,100675.00
2022-11-13T15:43:21.989Z,100662.38
2022-11-13T15:48:23.450Z,100676.31
2022-11-13T15:53:24.991Z,100665.88
2022-11-13T15:58:30.509Z,100648.91
2022-11-13T16:03:39.621Z,100660.03
2022-11-13T16:08:41.072Z,100666.94
2022-11-13T16:13:43.078Z,100655.47
2022-11-13T16:18:44.553Z,100673.59
2022-11-13T16:23:45.924Z,100673.19
2022-11-13T16:29:12.045Z,100664.88
2022-11-13T16:34:09.483Z,100662.25
2022-11-13T16:39:15.822Z,100665.53
2022-11-13T16:44:17.199Z,100663.56
2022-11-13T16:49:21.247Z,100655.06
2022-11-13T16:54:22.602Z,100651.38
2022-11-13T16:59:24.083Z,100656.63
2022-11-13T17:04:25.447Z,100642.84
2022-11-13T17:09:26.871Z,100638.31
2022-11-13T17:14:28.230Z,100640.19
2022-11-13T17:19:29.629Z,100640.19
2022-11-13T17:24:30.994Z,100639.53
2022-11-13T17:29:33.162Z,100629.13
2022-11-13T17:34:34.573Z,100625.78
2022-11-13T17:39:35.951Z,100622.53
2022-11-13T17:44:37.586Z,100624.56
2022-11-13T17:49:39.057Z,100627.72
2022-11-13T17:54:40.459Z,100616.59
2022-11-13T17:59:41.809Z,100621.94
2022-11-13T18:04:43.156Z,100619.75
2022-11-13T18:09:44.570Z,100630.94
2022-11-13T18:14:52.159Z,100619.88
2022-11-13T18:20:01.331Z,100621.81
2022-11-13T18:25:03.441Z,100621.44
2022-11-13T18:30:05.454Z,100611.81
2022-11-13T18:35:07.302Z,100612.97
2022-11-13T18:40:09.629Z,100604.69
2022-11-13T18:45:11.823Z,100609.81
2022-11-13T18:50:13.201Z,100610.25
2022-11-13T18:55:14.627Z,100611.09
2022-11-13T19:00:16.726Z,100599.25
2022-11-13T19:05:18.091Z,100590.75
2022-11-13T19:10:19.691Z,100578.22
2022-11-13T19:15:21.125Z,100564.53
2022-11-13T19:20:22.577Z,100569.44
2022-11-13T19:25:23.947Z,100566.75
2022-11-13T19:30:25.365Z,100558.13
2022-11-13T19:35:26.803Z,100551.19
2022-11-13T19:40:28.283Z,100555.53
2022-11-13T19:45:31.025Z,100555.38
2022-11-13T19:50:32.973Z,100562.19
2022-11-13T19:55:34.732Z,100550.94
2022-11-13T20:00:36.308Z,100553.53
2022-11-13T20:05:41.894Z,100554.97
2022-11-13T20:10:43.282Z,100546.28
2022-11-13T20:15:52.099Z,100542.69
2022-11-13T20:20:55.125Z,100545.78
2022-11-13T20:25:59.516Z,100538.22
2022-11-13T20:31:07.915Z,100537.25
2022-11-13T20:36:09.676Z,100536.53
2022-11-13T20:41:12.466Z,100537.75
2022-11-13T20:46:15.445Z,100545.78
2022-11-13T20:51:20.308Z,100547.63
2022-11-13T20:56:23.540Z,100544.13
2022-11-13T21:01:26.105Z,100547.50
2022-11-13T21:06:27.537Z,100543.59
2022-11-13T21:11:29.480Z,100544.56
2022-11-13T21:16:31.468Z,100546.19
2022-11-13T21:21:32.893Z,100545.84
2022-11-13T21:26:34.270Z,100547.47
2022-11-13T21:31:35.642Z,100527.81
2022-11-13T21:36:37.057Z,100535.72
2022-11-13T21:41:38.494Z,100536.06
2022-11-13T21:46:41.934Z,100533.38
2022-11-13T21:51:43.570Z,100527.78
2022-11-13T21:56:44.994Z,100520.50
2022-11-13T22:01:46.472Z,100517.59
2022-11-13T22:06:49.579Z,100510.44
2022-11-13T22:11:51.262Z,100506.69
2022-11-13T22:16:52.785Z,100504.34
2022-11-13T22:21:54.250Z,100508.19
2022-11-13T22:26:55.668Z,100497.69
2022-11-13T22:31:57.011Z,100504.16
2022-11-13T22:36:58.372Z,100494.63
2022-11-13T22:41:59.714Z,100496.16
2022-11-13T22:47:01.041Z,100491.50
2022-11-13T22:52:02.382Z,100487.31
2022-11-13T22:57:03.966Z,100478.19
2022-11-13T23:02:05.374Z,100476.47
2022-11-13T23:07:06.798Z,100473.97
2022-11-13T23:12:09.454Z,100458.38
2022-11-13T23:17:10.788Z,100457.97
2022-11-13T23:22:12.171Z,100458.56
2022-11-13T23:27:13.540Z,100461.09
2022-11-13T23:32:14.919Z,100453.53
2022-11-13T23:37:16.325Z,100446.53
2022-11-13T23:42:32.993Z,100453.41
2022-11-13T23:47:39.088Z,100451.31
2022-11-13T23:52:40.482Z,100445.84
2022-11-13T23:57:41.837Z,100444.44
